Hootenville, Louisiana
Current Conditions -  °F | °C
As of 12:09 PM on Friday 19 Dec 2014 (Local Time) from KASD Reporting Station
Heavy Rain Heavy Rain  
Wind Chill: 50°   Ceiling: 400
Heat Index: 50°   Visibility: 1mi
Dew Point: 48°   Wind: 3mph
Humidity: 93%   Direction: 20°NNE
Pressure: 30.1"   Gusts: NA
Location:  30.3898°N, 90.0068°W
Report Text: KASD 191809Z AUTO 02003KT 1SM +RA BR OVC004 10/09 A3010 RMK AO2 P0012 T01000089
Loading
Personal Weather Stations






























Interactive Weather Map New forecast layout! Learn more

10-Day Weather Forecast

Advertisements
Track Severe Weather on mobile